Time;durP1;ratioP1;P1;durP2;ratioP2;P2;SDS_P1;SDS_P2;PMS_P1;PMS_P2;Temp;Humidity;BMP_temperature;BMP_pressure;BME280_temperature;BME280_humidity;BME280_pressure;Samples;Min_cycle;Max_cycle;Signal;HPM_P1;HPM_P2
2023/09/23 00:01:25;;;;;;;5.03;2.08;;;15.80;78.40;;;;;;5035038;28;20044;-66
2023/09/23 00:03:51;;;;;;;3.95;1.92;;;15.80;78.50;;;;;;5051218;28;20025;-67
2023/09/23 00:06:20;;;;;;;4.88;1.77;;;15.80;78.50;;;;;;5034820;28;20151;-67
2023/09/23 00:08:46;;;;;;;3.85;1.80;;;15.80;78.50;;;;;;5031102;28;20022;-66
2023/09/23 00:11:13;;;;;;;4.03;1.50;;;15.70;78.30;;;;;;5035485;28;20050;-67
2023/09/23 00:13:39;;;;;;;3.75;1.55;;;15.70;78.30;;;;;;5035357;28;20346;-67
2023/09/23 00:16:09;;;;;;;2.45;1.30;;;15.70;78.10;;;;;;5035705;28;20061;-67
2023/09/23 00:18:35;;;;;;;3.45;1.50;;;15.70;78.10;;;;;;5033360;28;20036;-66
2023/09/23 00:21:03;;;;;;;4.53;1.65;;;15.60;78.00;;;;;;5033584;28;20029;-66
2023/09/23 00:23:28;;;;;;;4.20;1.83;;;15.60;78.60;;;;;;5034737;28;20021;-66
2023/09/23 00:25:54;;;;;;;3.80;1.50;;;15.60;77.90;;;;;;5033308;28;20427;-67
2023/09/23 00:28:20;;;;;;;3.15;1.52;;;15.60;77.90;;;;;;5040541;28;20064;-66
2023/09/23 00:30:47;;;;;;;3.55;1.48;;;15.50;77.90;;;;;;5034374;28;20026;-67
2023/09/23 00:33:16;;;;;;;3.58;1.52;;;15.60;77.90;;;;;;5032698;28;20029;-66
2023/09/23 00:35:44;;;;;;;3.47;1.40;;;15.50;77.80;;;;;;5017533;28;20025;-67
2023/09/23 00:38:12;;;;;;;3.83;1.40;;;15.50;77.70;;;;;;5034207;28;20029;-66
2023/09/23 00:40:38;;;;;;;2.47;1.30;;;15.40;77.70;;;;;;5046632;28;20029;-66
2023/09/23 00:43:15;;;;;;;3.55;1.30;;;15.40;77.60;;;;;;5033479;28;20064;-67
2023/09/23 00:45:48;;;;;;;3.10;1.40;;;15.40;77.60;;;;;;5034665;28;20033;-67
2023/09/23 00:48:18;;;;;;;3.80;1.40;;;15.40;77.50;;;;;;5033164;28;20090;-67
2023/09/23 00:50:46;;;;;;;4.23;1.87;;;15.40;77.50;;;;;;5033112;28;20032;-67
2023/09/23 00:53:13;;;;;;;3.30;1.20;;;15.30;77.50;;;;;;5041014;28;20036;-67
2023/09/23 00:55:47;;;;;;;3.45;1.17;;;15.30;77.50;;;;;;5030619;28;20033;-66
2023/09/23 00:58:19;;;;;;;4.85;1.40;;;15.30;77.40;;;;;;5034018;28;20033;-66
2023/09/23 01:00:48;;;;;;;4.53;1.42;;;15.30;77.40;;;;;;5047985;28;20084;-67
2023/09/23 01:03:15;;;;;;;5.32;1.58;;;15.30;77.30;;;;;;5032102;28;20084;-67
2023/09/23 01:05:42;;;;;;;4.72;1.73;;;15.20;77.30;;;;;;5033360;28;20029;-66
2023/09/23 01:08:20;;;;;;;4.65;1.50;;;15.30;78.00;;;;;;5030464;28;20017;-66
2023/09/23 01:10:49;;;;;;;3.50;1.50;;;15.30;77.30;;;;;;5035471;28;20402;-67
2023/09/23 01:13:19;;;;;;;3.85;1.70;;;15.30;77.30;;;;;;5028259;28;20028;-67
2023/09/23 01:15:46;;;;;;;4.90;2.08;;;15.20;77.30;;;;;;5033410;28;20091;-66
2023/09/23 01:18:13;;;;;;;3.72;1.80;;;15.20;77.30;;;;;;5031126;28;20033;-66
2023/09/23 01:20:42;;;;;;;5.68;1.98;;;15.20;77.30;;;;;;5049926;28;20162;-67
2023/09/23 01:23:15;;;;;;;3.58;1.67;;;15.20;77.30;;;;;;5015319;28;20048;-67
2023/09/23 01:25:41;;;;;;;4.45;1.77;;;15.20;77.20;;;;;;5033765;28;20036;-67
2023/09/23 01:28:13;;;;;;;4.53;1.75;;;15.20;77.20;;;;;;5047443;28;20029;-67
2023/09/23 01:30:46;;;;;;;5.13;2.25;;;15.20;77.10;;;;;;5034289;28;20034;-67
2023/09/23 01:33:14;;;;;;;5.55;2.47;;;15.20;77.10;;;;;;5049176;28;20030;-67
2023/09/23 01:35:41;;;;;;;5.45;2.55;;;15.10;77.10;;;;;;5034220;28;20029;-66
2023/09/23 01:38:07;;;;;;;7.82;3.10;;;15.20;77.20;;;;;;5030570;28;20025;-67
2023/09/23 01:40:35;;;;;;;6.15;2.88;;;15.10;77.20;;;;;;5033131;28;20037;-66
2023/09/23 01:43:02;;;;;;;6.68;3.28;;;15.10;77.30;;;;;;5031443;28;20037;-67
2023/09/23 01:45:30;;;;;;;7.18;3.53;;;15.10;77.30;;;;;;5033159;28;20072;-66
2023/09/23 01:47:59;;;;;;;7.43;4.25;;;15.10;77.40;;;;;;5032151;28;20024;-67
2023/09/23 01:50:26;;;;;;;8.27;4.40;;;15.10;77.40;;;;;;5032435;28;20025;-67
2023/09/23 01:52:54;;;;;;;8.23;4.72;;;15.10;77.50;;;;;;5033966;28;20021;-67
2023/09/23 01:55:20;;;;;;;9.10;5.47;;;15.10;77.50;;;;;;5033176;28;20030;-67
2023/09/23 01:57:49;;;;;;;8.80;5.63;;;15.10;77.40;;;;;;5033256;28;20480;-66
2023/09/23 02:00:18;;;;;;;10.13;6.35;;;15.10;77.40;;;;;;5046035;28;20139;-67
2023/09/23 02:02:48;;;;;;;9.88;5.70;;;15.20;77.50;;;;;;5033064;28;20072;-67
2023/09/23 02:05:17;;;;;;;8.95;5.75;;;15.10;77.40;;;;;;5049191;28;20018;-67
2023/09/23 02:07:45;;;;;;;9.75;5.68;;;15.20;77.50;;;;;;5050229;28;20098;-67
2023/09/23 02:10:14;;;;;;;10.43;6.75;;;15.20;77.60;;;;;;5026945;28;20041;-67
2023/09/23 02:12:44;;;;;;;11.45;7.90;;;15.20;77.60;;;;;;5032887;28;20032;-67
2023/09/23 02:15:15;;;;;;;9.85;6.60;;;15.20;77.60;;;;;;5032756;28;20022;-66
2023/09/23 02:17:46;;;;;;;10.40;6.85;;;15.20;77.80;;;;;;5033165;28;20374;-67
2023/09/23 02:20:19;;;;;;;11.00;7.60;;;15.20;77.80;;;;;;5036222;28;20030;-67
2023/09/23 02:22:49;;;;;;;10.98;7.55;;;15.20;77.70;;;;;;5044639;28;20037;-66
2023/09/23 02:25:16;;;;;;;10.38;7.50;;;15.20;77.70;;;;;;5037168;28;20095;-67
2023/09/23 02:27:46;;;;;;;12.55;8.23;;;15.20;77.70;;;;;;5036597;28;20362;-67
2023/09/23 02:30:13;;;;;;;11.95;8.23;;;15.20;77.70;;;;;;5035850;28;20481;-66
2023/09/23 02:32:41;;;;;;;12.50;9.38;;;15.20;77.70;;;;;;5037371;28;20120;-67
2023/09/23 02:35:11;;;;;;;12.95;8.93;;;15.20;77.80;;;;;;5035661;28;20044;-67
2023/09/23 02:37:42;;;;;;;12.88;8.80;;;15.30;77.90;;;;;;5056838;28;20044;-67
2023/09/23 02:40:12;;;;;;;12.70;9.25;;;15.20;77.90;;;;;;5045691;28;20465;-67
2023/09/23 02:42:51;;;;;;;11.93;8.20;;;15.30;78.00;;;;;;5052172;28;20142;-66
2023/09/23 02:45:17;;;;;;;15.00;8.98;;;15.30;78.70;;;;;;5052315;28;20098;-67
2023/09/23 02:47:43;;;;;;;12.32;9.52;;;15.30;78.10;;;;;;5036098;28;20470;-67
2023/09/23 02:50:10;;;;;;;12.40;9.40;;;15.30;78.10;;;;;;5035237;28;20467;-67
2023/09/23 02:52:40;;;;;;;14.32;10.10;;;15.30;78.20;;;;;;5035979;28;20105;-66
2023/09/23 02:55:11;;;;;;;15.50;11.13;;;15.30;78.20;;;;;;5036285;28;20109;-67
2023/09/23 02:57:37;;;;;;;13.93;10.88;;;15.30;78.20;;;;;;5052424;28;20021;-67
2023/09/23 03:00:17;;;;;;;14.30;10.10;;;15.30;78.20;;;;;;5036146;28;20018;-66
2023/09/23 03:02:54;;;;;;;13.82;10.70;;;15.30;78.20;;;;;;5035935;28;20339;-66
2023/09/23 03:05:28;;;;;;;15.85;11.18;;;15.30;78.20;;;;;;5035119;28;20049;-67
2023/09/23 03:07:58;;;;;;;13.73;10.82;;;15.30;78.20;;;;;;5037138;28;20095;-67
2023/09/23 03:10:40;;;;;;;15.35;11.57;;;15.30;78.30;;;;;;5034343;28;20057;-67
2023/09/23 03:13:11;;;;;;;15.27;11.05;;;15.30;78.40;;;;;;5033656;28;20033;-67
2023/09/23 03:15:49;;;;;;;14.70;10.88;;;15.30;78.40;;;;;;5036288;28;20446;-67
2023/09/23 03:18:17;;;;;;;15.13;11.20;;;15.30;78.50;;;;;;5035882;28;20038;-66
2023/09/23 03:20:43;;;;;;;15.13;11.43;;;15.30;78.50;;;;;;5033803;28;20087;-66
2023/09/23 03:23:10;;;;;;;14.50;10.88;;;15.30;78.60;;;;;;5036887;28;20056;-66
2023/09/23 03:25:46;;;;;;;14.55;11.63;;;15.30;78.70;;;;;;5034897;28;20053;-67
2023/09/23 03:28:16;;;;;;;12.88;10.30;;;15.30;78.70;;;;;;5051924;28;20029;-66
2023/09/23 03:30:49;;;;;;;13.82;10.75;;;15.30;78.70;;;;;;5034428;28;20033;-66
2023/09/23 03:33:18;;;;;;;13.98;10.00;;;15.30;78.60;;;;;;5033753;28;20021;-67
2023/09/23 03:35:46;;;;;;;15.20;10.27;;;15.30;78.50;;;;;;5033912;28;20029;-67
2023/09/23 03:38:13;;;;;;;14.60;10.35;;;15.30;78.50;;;;;;5051909;28;20037;-67
2023/09/23 03:40:38;;;;;;;14.60;10.85;;;15.30;78.60;;;;;;5033456;28;20143;-67
2023/09/23 03:43:05;;;;;;;15.73;11.10;;;15.30;78.60;;;;;;5032454;28;20067;-67
2023/09/23 03:45:38;;;;;;;13.70;11.15;;;15.30;78.60;;;;;;5031097;28;20030;-66
2023/09/23 03:48:04;;;;;;;16.25;10.77;;;15.30;78.60;;;;;;5033183;28;20037;-66
2023/09/23 03:50:33;;;;;;;15.13;9.95;;;15.30;78.60;;;;;;5015546;28;20025;-66
2023/09/23 03:52:59;;;;;;;15.02;11.27;;;15.30;78.60;;;;;;5031729;28;20042;-66
2023/09/23 03:55:25;;;;;;;13.48;10.13;;;15.30;78.70;;;;;;5031306;28;20040;-66
2023/09/23 03:57:54;;;;;;;16.10;11.23;;;15.30;78.70;;;;;;5028498;28;20041;-66
2023/09/23 04:00:20;;;;;;;17.02;11.70;;;15.30;78.70;;;;;;5037217;28;20036;-66
2023/09/23 04:02:47;;;;;;;15.05;10.85;;;15.30;78.70;;;;;;5019800;28;20064;-66
2023/09/23 04:05:16;;;;;;;13.65;10.48;;;15.30;78.80;;;;;;5035197;28;20065;-66
2023/09/23 04:07:49;;;;;;;19.02;12.07;;;15.30;78.80;;;;;;5049069;28;20488;-66
2023/09/23 04:10:19;;;;;;;16.45;11.35;;;15.30;78.80;;;;;;5035405;28;20049;-66
2023/09/23 04:12:45;;;;;;;15.32;10.52;;;15.30;78.70;;;;;;5017581;28;20469;-66
2023/09/23 04:15:11;;;;;;;16.48;10.93;;;15.30;78.80;;;;;;5035010;28;20063;-66
2023/09/23 04:17:38;;;;;;;14.63;10.85;;;15.30;78.80;;;;;;5036353;28;20033;-66
2023/09/23 04:20:11;;;;;;;15.65;11.75;;;15.30;78.90;;;;;;5039510;28;20401;-66
2023/09/23 04:22:41;;;;;;;13.85;10.80;;;15.30;78.80;;;;;;5034949;28;20033;-65
2023/09/23 04:25:08;;;;;;;16.40;11.32;;;15.30;78.70;;;;;;5034992;28;20056;-65
2023/09/23 04:27:36;;;;;;;15.75;12.00;;;15.30;78.80;;;;;;5031278;28;20034;-66
2023/09/23 04:30:09;;;;;;;16.13;11.35;;;15.30;78.80;;;;;;5034241;28;20036;-66
2023/09/23 04:32:36;;;;;;;16.25;11.25;;;15.30;78.80;;;;;;5029794;28;20041;-66
2023/09/23 04:35:16;;;;;;;16.38;11.18;;;15.30;78.70;;;;;;5036000;28;20356;-66
2023/09/23 04:37:42;;;;;;;15.57;10.73;;;15.30;78.70;;;;;;5033670;28;20033;-66
2023/09/23 04:40:09;;;;;;;15.55;10.80;;;15.20;78.70;;;;;;5035267;28;20029;-66
2023/09/23 04:42:36;;;;;;;15.00;12.02;;;15.20;78.80;;;;;;5036196;28;20068;-66
2023/09/23 04:45:03;;;;;;;17.02;11.75;;;15.30;78.70;;;;;;5042286;28;20040;-66
2023/09/23 04:47:28;;;;;;;16.52;12.20;;;15.20;78.90;;;;;;5016564;28;20033;-66
2023/09/23 04:49:55;;;;;;;15.43;12.07;;;15.20;78.70;;;;;;5035378;28;20021;-66
2023/09/23 04:52:21;;;;;;;18.80;12.60;;;15.20;78.80;;;;;;5035996;28;20037;-66
2023/09/23 04:54:47;;;;;;;17.48;11.93;;;15.20;78.70;;;;;;5035054;28;20017;-66
2023/09/23 04:57:14;;;;;;;17.55;12.45;;;15.20;78.70;;;;;;5033594;28;20057;-66
2023/09/23 04:59:40;;;;;;;16.80;11.73;;;15.20;78.70;;;;;;5039113;28;20017;-66
2023/09/23 05:02:06;;;;;;;16.38;12.40;;;15.20;78.70;;;;;;5041596;28;20354;-66
2023/09/23 05:04:31;;;;;;;15.93;11.35;;;15.20;78.70;;;;;;5040854;28;20036;-66
2023/09/23 05:06:57;;;;;;;15.93;11.45;;;15.20;78.80;;;;;;5046552;28;20033;-66
2023/09/23 05:09:26;;;;;;;16.30;11.45;;;15.20;78.80;;;;;;5035291;28;20035;-66
2023/09/23 05:11:52;;;;;;;14.60;11.40;;;15.20;78.80;;;;;;5044774;28;20458;-66
2023/09/23 05:14:18;;;;;;;17.10;11.25;;;15.20;78.90;;;;;;5032253;28;20356;-66
2023/09/23 05:16:43;;;;;;;16.02;12.23;;;15.20;78.90;;;;;;5031607;28;20167;-69
2023/09/23 05:19:11;;;;;;;15.98;11.27;;;15.20;78.90;;;;;;5032577;28;20108;-66
2023/09/23 05:21:36;;;;;;;14.55;11.10;;;15.20;78.90;;;;;;5032960;28;20095;-66
2023/09/23 05:24:04;;;;;;;16.60;10.95;;;15.20;79.00;;;;;;5030501;28;20029;-66
2023/09/23 05:26:32;;;;;;;15.32;10.52;;;15.20;79.00;;;;;;5031490;28;20485;-66
2023/09/23 05:28:58;;;;;;;15.00;10.32;;;15.20;79.00;;;;;;5033398;28;20022;-66
2023/09/23 05:31:25;;;;;;;15.07;10.38;;;15.20;79.00;;;;;;5031018;28;20520;-67
2023/09/23 05:33:50;;;;;;;14.90;10.73;;;15.20;79.50;;;;;;5032566;28;20040;-67
2023/09/23 05:36:17;;;;;;;15.57;9.98;;;15.20;78.90;;;;;;5030928;28;20033;-66
2023/09/23 05:38:43;;;;;;;14.02;10.10;;;15.20;79.10;;;;;;5031841;28;20552;-67
2023/09/23 05:41:09;;;;;;;13.57;9.82;;;15.20;79.10;;;;;;5032505;28;20112;-66
2023/09/23 05:43:34;;;;;;;15.68;9.48;;;15.20;79.10;;;;;;5030266;28;20040;-66
2023/09/23 05:46:06;;;;;;;12.02;8.75;;;15.20;78.90;;;;;;5030548;28;20103;-67
2023/09/23 05:48:33;;;;;;;14.40;9.77;;;15.20;78.90;;;;;;5027560;28;20057;-66
2023/09/23 05:51:05;;;;;;;12.05;8.98;;;15.20;78.90;;;;;;5028246;28;20033;-67
2023/09/23 05:53:33;;;;;;;13.90;8.65;;;15.20;78.90;;;;;;5028220;28;20037;-67
2023/09/23 05:56:00;;;;;;;13.70;8.73;;;15.20;78.80;;;;;;5028209;28;20450;-68
2023/09/23 05:58:26;;;;;;;12.63;8.27;;;15.20;78.70;;;;;;5029401;28;20029;-67
2023/09/23 06:00:52;;;;;;;13.07;8.20;;;15.20;78.80;;;;;;5032314;28;20036;-67
2023/09/23 06:03:17;;;;;;;12.30;8.98;;;15.20;78.80;;;;;;5044707;28;20021;-67
2023/09/23 06:05:44;;;;;;;11.98;7.82;;;15.20;78.80;;;;;;5031069;28;20018;-67
2023/09/23 06:08:12;;;;;;;9.27;6.75;;;15.20;78.80;;;;;;5031674;28;20362;-67
2023/09/23 06:10:39;;;;;;;11.07;6.63;;;15.20;79.00;;;;;;5032824;28;20466;-68
2023/09/23 06:13:09;;;;;;;11.85;7.05;;;15.20;78.80;;;;;;5029015;28;20428;-67
2023/09/23 06:15:35;;;;;;;10.10;6.60;;;15.20;78.80;;;;;;5030633;28;20041;-67
2023/09/23 06:18:01;;;;;;;10.55;7.13;;;15.20;78.80;;;;;;5031136;28;20028;-67
2023/09/23 06:20:27;;;;;;;10.70;6.00;;;15.20;78.80;;;;;;5047545;28;20034;-68
2023/09/23 06:22:54;;;;;;;11.48;7.25;;;15.20;78.70;;;;;;5032579;28;20447;-68
2023/09/23 06:25:20;;;;;;;11.43;6.95;;;15.20;78.70;;;;;;5032508;28;20029;-67
2023/09/23 06:27:46;;;;;;;10.00;6.55;;;15.20;78.70;;;;;;5042639;28;20032;-67
2023/09/23 06:30:15;;;;;;;10.80;6.97;;;15.20;78.70;;;;;;5029285;28;20120;-67
2023/09/23 06:32:44;;;;;;;12.30;7.32;;;15.20;78.60;;;;;;5030508;28;20037;-67
2023/09/23 06:35:11;;;;;;;11.38;6.63;;;15.20;78.60;;;;;;5032213;28;20112;-67
2023/09/23 06:37:37;;;;;;;11.20;7.30;;;15.20;78.70;;;;;;5031997;28;20033;-67
2023/09/23 06:40:06;;;;;;;11.23;6.88;;;15.20;78.60;;;;;;5030449;28;20033;-66
2023/09/23 06:42:32;;;;;;;10.80;6.82;;;15.20;78.60;;;;;;5031624;28;20152;-66
2023/09/23 06:44:58;;;;;;;10.70;6.55;;;15.20;78.60;;;;;;5030746;28;20109;-66
2023/09/23 06:47:24;;;;;;;13.30;7.18;;;15.30;78.70;;;;;;5015260;28;20033;-68
2023/09/23 06:49:50;;;;;;;11.73;7.45;;;15.30;78.50;;;;;;5031120;28;20029;-68
2023/09/23 06:52:16;;;;;;;9.77;6.20;;;15.30;78.50;;;;;;5028921;28;20067;-67
2023/09/23 06:54:42;;;;;;;11.43;6.43;;;15.30;78.60;;;;;;5031496;28;20044;-67
2023/09/23 06:57:07;;;;;;;12.38;6.50;;;15.30;78.40;;;;;;5032029;28;20036;-67
2023/09/23 06:59:33;;;;;;;10.95;7.00;;;15.40;78.50;;;;;;5030015;28;20512;-67
2023/09/23 07:01:59;;;;;;;11.55;6.70;;;15.40;78.40;;;;;;5032000;28;20346;-68
2023/09/23 07:04:24;;;;;;;10.80;6.78;;;15.40;78.30;;;;;;5034377;28;20029;-67
2023/09/23 07:06:50;;;;;;;13.07;7.10;;;15.40;78.20;;;;;;5031521;28;20087;-68
2023/09/23 07:09:16;;;;;;;11.52;6.63;;;15.50;78.30;;;;;;5042666;28;20144;-67
2023/09/23 07:11:42;;;;;;;11.63;6.93;;;15.50;78.20;;;;;;5012064;28;20045;-67
2023/09/23 07:14:08;;;;;;;12.35;6.57;;;15.50;78.20;;;;;;5011760;28;20030;-70
2023/09/23 07:16:33;;;;;;;14.27;7.50;;;15.50;78.20;;;;;;5025788;28;20030;-68
2023/09/23 07:19:03;;;;;;;10.52;6.88;;;15.60;78.20;;;;;;4994249;28;20033;-68
2023/09/23 07:21:29;;;;;;;11.43;7.30;;;15.60;78.20;;;;;;5011311;28;20040;-67
2023/09/23 07:23:56;;;;;;;10.23;6.78;;;15.60;78.20;;;;;;5010396;28;20114;-67
2023/09/23 07:26:22;;;;;;;10.43;6.38;;;15.60;78.10;;;;;;5011484;28;20083;-67
2023/09/23 07:28:50;;;;;;;10.32;6.45;;;15.70;78.10;;;;;;5030316;28;20026;-67
2023/09/23 07:31:17;;;;;;;10.73;6.30;;;15.70;78.10;;;;;;5027909;28;20037;-66
2023/09/23 07:33:43;;;;;;;8.95;5.68;;;15.80;78.10;;;;;;5032052;28;20029;-67
2023/09/23 07:36:13;;;;;;;10.00;6.18;;;15.80;78.60;;;;;;5015886;28;20389;-67
2023/09/23 07:38:39;;;;;;;9.70;6.00;;;15.80;77.80;;;;;;5015900;28;20041;-67
2023/09/23 07:41:06;;;;;;;9.50;5.10;;;15.90;77.80;;;;;;5031638;28;20025;-67
2023/09/23 07:43:32;;;;;;;9.80;5.70;;;15.90;77.70;;;;;;5031983;28;20386;-67
2023/09/23 07:45:58;;;;;;;10.00;5.60;;;15.90;77.70;;;;;;5015705;28;20343;-67
2023/09/23 07:48:24;;;;;;;8.60;5.40;;;15.90;77.70;;;;;;5031607;28;20034;-67
2023/09/23 07:50:50;;;;;;;12.38;6.03;;;15.90;77.70;;;;;;5014945;28;20033;-67
2023/09/23 07:53:16;;;;;;;8.70;5.10;;;15.90;77.60;;;;;;5016250;28;20029;-67
2023/09/23 07:55:43;;;;;;;10.77;5.78;;;16.00;77.60;;;;;;5016385;28;20037;-67
2023/09/23 07:58:09;;;;;;;8.38;4.97;;;16.00;77.50;;;;;;5031622;28;20041;-67
2023/09/23 08:00:35;;;;;;;10.27;4.88;;;16.00;77.50;;;;;;4998889;28;20423;-67
2023/09/23 08:03:01;;;;;;;8.02;5.15;;;16.00;77.50;;;;;;5029987;28;20080;-67
2023/09/23 08:05:29;;;;;;;9.95;4.95;;;16.10;77.50;;;;;;5011936;28;20095;-67
2023/09/23 08:07:55;;;;;;;9.23;4.97;;;16.10;77.50;;;;;;5015209;28;20037;-67
2023/09/23 08:10:21;;;;;;;10.75;5.35;;;16.10;77.40;;;;;;5026519;28;20048;-67
2023/09/23 08:12:47;;;;;;;8.45;4.40;;;16.10;77.20;;;;;;5035970;28;20030;-67
2023/09/23 08:15:13;;;;;;;8.55;4.70;;;16.20;77.20;;;;;;5034582;28;20025;-67
2023/09/23 08:17:39;;;;;;;8.10;4.53;;;16.30;77.00;;;;;;5035564;28;20036;-67
2023/09/23 08:20:20;;;;;;;8.80;5.45;;;16.40;76.80;;;;;;5050715;28;20031;-67
2023/09/23 08:22:46;;;;;;;7.47;4.57;;;16.50;76.60;;;;;;5029246;28;20025;-67
2023/09/23 08:25:17;;;;;;;10.05;5.25;;;16.50;76.40;;;;;;5035545;28;20029;-67
2023/09/23 08:27:44;;;;;;;9.45;5.13;;;16.60;76.40;;;;;;5051017;28;20033;-67
2023/09/23 08:30:10;;;;;;;9.32;4.85;;;16.70;76.20;;;;;;5050731;28;20124;-67
2023/09/23 08:32:37;;;;;;;8.15;4.47;;;16.90;76.10;;;;;;5029663;28;20040;-67
2023/09/23 08:35:03;;;;;;;9.35;4.22;;;17.10;75.60;;;;;;5034320;28;20025;-67
2023/09/23 08:37:29;;;;;;;10.10;4.40;;;17.40;75.20;;;;;;5031523;28;20117;-64
2023/09/23 08:39:55;;;;;;;8.48;3.83;;;17.50;74.80;;;;;;5034163;28;20112;-67
2023/09/23 08:42:23;;;;;;;7.45;4.22;;;17.60;74.60;;;;;;5033053;28;20068;-65
2023/09/23 08:44:49;;;;;;;10.35;3.97;;;17.60;74.40;;;;;;5050711;28;20028;-65
2023/09/23 08:47:18;;;;;;;7.50;4.00;;;17.60;74.40;;;;;;5033152;28;20036;-66
2023/09/23 08:49:47;;;;;;;6.65;3.67;;;17.50;74.40;;;;;;5031315;28;20037;-66
2023/09/23 08:52:15;;;;;;;7.40;3.75;;;17.50;74.60;;;;;;5034799;28;20021;-65
2023/09/23 08:54:42;;;;;;;8.75;3.83;;;17.50;74.70;;;;;;5034016;28;20037;-66
2023/09/23 08:57:08;;;;;;;12.13;4.07;;;17.40;74.70;;;;;;5035073;28;20064;-65
2023/09/23 08:59:34;;;;;;;6.57;3.85;;;17.40;74.80;;;;;;5033790;28;20417;-64
2023/09/23 09:02:00;;;;;;;8.52;3.92;;;17.40;74.70;;;;;;5034775;28;20434;-65
2023/09/23 09:04:26;;;;;;;8.82;4.38;;;17.40;74.60;;;;;;5042612;28;20058;-64
2023/09/23 09:06:53;;;;;;;8.00;3.70;;;17.40;74.60;;;;;;5049631;28;20061;-64
2023/09/23 09:09:19;;;;;;;7.57;3.50;;;17.40;74.70;;;;;;5034493;28;20033;-65
2023/09/23 09:11:46;;;;;;;7.75;3.63;;;17.30;74.70;;;;;;5046042;28;20055;-65
2023/09/23 09:14:13;;;;;;;7.68;3.70;;;17.30;74.80;;;;;;5038847;28;20506;-65
2023/09/23 09:16:39;;;;;;;7.60;3.50;;;17.30;74.70;;;;;;5049851;28;20444;-65
2023/09/23 09:19:05;;;;;;;8.18;3.72;;;17.30;74.70;;;;;;5032904;28;20033;-64
2023/09/23 09:21:32;;;;;;;8.77;3.50;;;17.40;74.60;;;;;;5033462;28;20030;-64
2023/09/23 09:24:01;;;;;;;8.10;3.53;;;17.40;74.60;;;;;;5029536;28;20021;-65
2023/09/23 09:26:26;;;;;;;8.32;3.40;;;17.50;74.50;;;;;;5027136;28;20068;-65
2023/09/23 09:28:53;;;;;;;9.27;3.45;;;17.40;74.50;;;;;;5032470;28;20061;-65
2023/09/23 09:31:18;;;;;;;7.50;3.20;;;17.30;74.60;;;;;;5031642;28;20043;-66
2023/09/23 09:33:47;;;;;;;8.27;3.60;;;17.20;74.90;;;;;;5027182;28;20120;-64
2023/09/23 09:36:20;;;;;;;7.10;2.95;;;17.20;75.20;;;;;;5028520;28;20128;-64
2023/09/23 09:38:51;;;;;;;7.03;3.10;;;17.10;75.40;;;;;;5027891;28;20040;-64
2023/09/23 09:41:29;;;;;;;6.97;3.10;;;17.00;75.50;;;;;;5028497;28;20030;-68
2023/09/23 09:43:56;;;;;;;6.15;2.92;;;17.00;75.70;;;;;;5041045;28;20383;-65
2023/09/23 09:46:24;;;;;;;7.75;3.25;;;17.00;75.90;;;;;;5036003;28;20029;-65
2023/09/23 09:48:50;;;;;;;8.43;2.70;;;17.00;75.90;;;;;;5025607;28;20128;-65
2023/09/23 09:51:18;;;;;;;5.47;2.60;;;17.00;76.10;;;;;;5024078;28;20391;-65
2023/09/23 09:53:45;;;;;;;6.70;3.10;;;17.00;76.20;;;;;;5010114;28;20040;-70
2023/09/23 09:56:12;;;;;;;6.95;3.10;;;17.00;76.30;;;;;;5028517;28;20119;-72
2023/09/23 09:58:40;;;;;;;6.70;2.80;;;17.00;76.30;;;;;;5028943;28;20052;-73
2023/09/23 10:01:11;;;;;;;8.48;3.55;;;17.10;76.40;;;;;;5039532;28;20022;-70
2023/09/23 10:03:40;;;;;;;;;;;17.10;76.40;;;;;;5010537;28;20550;-70
2023/09/23 10:06:07;;;;;;;7.35;3.35;;;17.10;76.30;;;;;;5026957;28;20004;-70
2023/09/23 10:08:38;;;;;;;7.40;3.28;;;17.10;76.40;;;;;;5031644;28;20040;-70
2023/09/23 10:11:08;;;;;;;6.70;3.20;;;17.10;76.50;;;;;;5015681;28;20073;-70
2023/09/23 10:13:34;;;;;;;10.02;3.45;;;17.10;76.60;;;;;;5033976;28;20029;-71
2023/09/23 10:16:18;;;;;;;8.63;3.22;;;17.20;76.70;;;;;;5045164;28;20021;-70
2023/09/23 10:18:59;;;;;;;6.90;3.33;;;17.20;76.80;;;;;;5024256;28;20067;-70
2023/09/23 10:21:27;;;;;;;7.70;3.40;;;17.20;76.80;;;;;;5029285;28;20030;-70
2023/09/23 10:23:59;;;;;;;8.25;3.30;;;17.20;76.90;;;;;;5029576;28;20042;-70
2023/09/23 10:26:28;;;;;;;;;;;17.20;77.10;;;;;;5043897;28;20490;-71
2023/09/23 10:28:58;;;;;;;8.50;3.13;;;17.30;77.00;;;;;;5026404;28;20361;-71
2023/09/23 10:31:28;;;;;;;9.32;3.80;;;17.30;77.10;;;;;;5029749;28;20467;-72
2023/09/23 10:33:55;;;;;;;9.90;4.30;;;17.30;77.20;;;;;;5027824;28;20379;-72
2023/09/23 10:36:21;;;;;;;9.57;4.13;;;17.40;77.10;;;;;;5027692;28;20029;-71
2023/09/23 10:38:48;;;;;;;9.07;4.10;;;17.40;77.10;;;;;;5022013;28;20029;-72
2023/09/23 10:41:14;;;;;;;9.10;3.40;;;17.50;77.10;;;;;;5011887;28;20210;-72
2023/09/23 10:43:40;;;;;;;8.23;3.33;;;17.50;77.00;;;;;;5028031;28;20022;-73
2023/09/23 10:46:06;;;;;;;7.57;3.40;;;17.60;76.90;;;;;;5030152;28;20053;-73
2023/09/23 10:48:33;;;;;;;7.00;3.22;;;17.70;76.90;;;;;;5032870;28;20074;-72
2023/09/23 10:51:00;;;;;;;7.53;3.55;;;17.80;76.80;;;;;;5031064;28;20049;-73
2023/09/23 10:53:30;;;;;;;7.00;3.10;;;17.80;76.60;;;;;;5032089;28;20021;-71
2023/09/23 10:56:02;;;;;;;7.68;3.40;;;17.90;76.50;;;;;;5030629;28;20041;-70
2023/09/23 10:58:32;;;;;;;8.70;3.90;;;18.10;76.90;;;;;;5032562;28;20029;-70
2023/09/23 11:00:58;;;;;;;7.35;3.15;;;18.10;75.90;;;;;;5014951;28;20036;-70
2023/09/23 11:03:24;;;;;;;7.00;3.17;;;18.30;75.60;;;;;;5031216;28;20036;-68
2023/09/23 11:05:51;;;;;;;10.10;3.25;;;18.40;75.40;;;;;;5032188;28;21925;-70
2023/09/23 11:08:20;;;;;;;7.13;3.13;;;18.50;75.30;;;;;;5029469;28;20029;-69
2023/09/23 11:10:47;;;;;;;5.90;3.10;;;18.50;75.20;;;;;;5026073;28;20045;-70
2023/09/23 11:13:14;;;;;;;6.82;3.03;;;18.40;75.10;;;;;;5028820;28;20044;-70
2023/09/23 11:15:45;;;;;;;7.78;2.88;;;18.40;75.00;;;;;;5031646;28;20025;-71
2023/09/23 11:18:16;;;;;;;9.00;3.35;;;18.40;75.00;;;;;;5031566;28;20036;-72
2023/09/23 11:20:43;;;;;;;;;;;18.40;74.90;;;;;;5033942;28;20029;-66
2023/09/23 11:23:10;;;;;;;5.82;2.53;;;18.30;75.00;;;;;;5030619;28;19916;-66
2023/09/23 11:25:48;;;;;;;6.75;2.70;;;18.20;75.00;;;;;;5030957;28;20033;-66
2023/09/23 11:28:18;;;;;;;7.47;2.88;;;18.20;75.00;;;;;;5028089;28;20034;-66
2023/09/23 11:30:45;;;;;;;9.07;3.33;;;18.10;75.00;;;;;;5027641;28;20049;-66
2023/09/23 11:33:11;;;;;;;8.77;2.95;;;18.10;75.30;;;;;;5022916;28;20040;-66
2023/09/23 11:35:38;;;;;;;6.05;3.17;;;18.10;75.40;;;;;;5031026;28;20022;-66
2023/09/23 11:38:04;;;;;;;7.30;3.03;;;18.00;75.60;;;;;;5031778;28;20033;-67
2023/09/23 11:40:31;;;;;;;6.78;3.10;;;18.00;75.80;;;;;;5040030;28;20025;-67
2023/09/23 11:42:57;;;;;;;6.07;2.85;;;17.90;75.80;;;;;;5036008;28;21158;-66
2023/09/23 11:45:23;;;;;;;6.13;3.35;;;17.80;76.10;;;;;;5030605;28;20038;-66
2023/09/23 11:47:49;;;;;;;7.28;3.20;;;17.70;76.50;;;;;;5031810;28;20033;-66
2023/09/23 11:50:16;;;;;;;7.88;3.47;;;17.70;76.90;;;;;;5029842;28;20026;-66
2023/09/23 11:52:41;;;;;;;8.25;3.30;;;17.60;77.10;;;;;;5030223;28;20112;-66
2023/09/23 11:55:10;;;;;;;6.30;3.25;;;17.60;77.40;;;;;;5030504;28;20553;-66
2023/09/23 11:57:36;;;;;;;5.63;2.92;;;17.60;77.70;;;;;;5032130;28;20067;-66
2023/09/23 12:00:04;;;;;;;7.55;3.22;;;17.70;77.90;;;;;;5043644;28;20044;-66
2023/09/23 12:02:32;;;;;;;8.82;3.53;;;17.70;78.00;;;;;;5036724;28;20060;-66
2023/09/23 12:04:58;;;;;;;7.05;3.17;;;17.90;78.00;;;;;;5011904;28;20058;-66
2023/09/23 12:07:24;;;;;;;8.20;3.65;;;18.10;77.70;;;;;;5030346;28;20036;-66
2023/09/23 12:09:49;;;;;;;7.88;3.33;;;18.30;77.50;;;;;;5030748;28;20029;-67
2023/09/23 12:12:16;;;;;;;5.93;3.15;;;18.30;77.40;;;;;;5030558;28;20029;-66
2023/09/23 12:14:45;;;;;;;7.10;3.55;;;18.40;77.60;;;;;;5030971;28;20120;-66
2023/09/23 12:17:14;;;;;;;7.38;3.10;;;18.40;77.60;;;;;;5018612;28;20492;-66
2023/09/23 12:19:41;;;;;;;8.60;3.00;;;18.40;77.60;;;;;;5030653;28;20041;-67
2023/09/23 12:22:11;;;;;;;7.57;3.05;;;18.40;77.60;;;;;;5028668;28;20033;-67
2023/09/23 12:24:36;;;;;;;7.22;2.95;;;18.40;77.70;;;;;;5028013;28;20057;-67
2023/09/23 12:27:02;;;;;;;6.32;2.60;;;18.40;77.70;;;;;;5029783;28;20108;-72
2023/09/23 12:29:28;;;;;;;7.78;2.75;;;18.40;77.70;;;;;;5026229;28;20053;-71
2023/09/23 12:31:54;;;;;;;5.78;2.42;;;18.50;77.70;;;;;;5029173;28;20065;-72
2023/09/23 12:34:20;;;;;;;5.97;2.40;;;18.60;77.50;;;;;;5028944;28;20037;-71
2023/09/23 12:36:46;;;;;;;5.63;2.08;;;18.70;77.10;;;;;;5024560;28;20038;-71
2023/09/23 12:39:14;;;;;;;4.95;1.98;;;18.70;77.20;;;;;;5044047;28;20029;-72
2023/09/23 12:41:40;;;;;;;7.43;2.63;;;18.70;77.00;;;;;;5030357;28;20057;-71
2023/09/23 12:44:05;;;;;;;7.35;2.05;;;18.70;77.10;;;;;;5029746;28;20045;-72